sensor_id;sensor_type;location;lat;lon;timestamp;P1;durP1;ratioP1;P2;durP2;ratioP2
42192;SDS011;52467;40.114;18.306;2022-11-04T00:02:05;8.10;;;4.63;;
42192;SDS011;52467;40.114;18.306;2022-11-04T00:04:33;8.52;;;4.93;;
42192;SDS011;52467;40.114;18.306;2022-11-04T00:07:00;8.73;;;4.43;;
42192;SDS011;52467;40.114;18.306;2022-11-04T00:09:28;11.20;;;4.80;;
42192;SDS011;52467;40.114;18.306;2022-11-04T00:11:56;10.77;;;5.15;;
42192;SDS011;52467;40.114;18.306;2022-11-04T00:14:42;9.63;;;5.25;;
42192;SDS011;52467;40.114;18.306;2022-11-04T00:17:10;11.60;;;6.10;;
42192;SDS011;52467;40.114;18.306;2022-11-04T00:19:53;12.38;;;5.95;;
42192;SDS011;52467;40.114;18.306;2022-11-04T00:22:39;18.10;;;6.90;;
42192;SDS011;52467;40.114;18.306;2022-11-04T00:25:26;15.48;;;7.35;;
42192;SDS011;52467;40.114;18.306;2022-11-04T00:30:59;14.55;;;7.22;;
42192;SDS011;52467;40.114;18.306;2022-11-04T00:33:48;15.02;;;6.82;;
42192;SDS011;52467;40.114;18.306;2022-11-04T00:36:16;17.67;;;6.78;;
42192;SDS011;52467;40.114;18.306;2022-11-04T00:38:43;13.55;;;6.82;;
42192;SDS011;52467;40.114;18.306;2022-11-04T00:41:11;13.77;;;6.88;;
42192;SDS011;52467;40.114;18.306;2022-11-04T00:43:56;14.10;;;7.30;;
42192;SDS011;52467;40.114;18.306;2022-11-04T00:46:25;16.20;;;6.57;;
42192;SDS011;52467;40.114;18.306;2022-11-04T00:48:56;18.98;;;6.95;;
42192;SDS011;52467;40.114;18.306;2022-11-04T00:51:24;15.70;;;7.53;;
42192;SDS011;52467;40.114;18.306;2022-11-04T00:53:52;16.55;;;7.10;;
42192;SDS011;52467;40.114;18.306;2022-11-04T00:56:19;13.80;;;7.47;;
42192;SDS011;52467;40.114;18.306;2022-11-04T00:58:47;15.68;;;7.32;;
42192;SDS011;52467;40.114;18.306;2022-11-04T01:01:16;14.23;;;7.10;;
42192;SDS011;52467;40.114;18.306;2022-11-04T01:03:44;14.55;;;6.97;;
42192;SDS011;52467;40.114;18.306;2022-11-04T01:06:13;15.27;;;7.40;;
42192;SDS011;52467;40.114;18.306;2022-11-04T01:08:41;17.57;;;6.90;;
42192;SDS011;52467;40.114;18.306;2022-11-04T01:11:08;13.82;;;6.55;;
42192;SDS011;52467;40.114;18.306;2022-11-04T01:13:36;14.32;;;6.78;;
42192;SDS011;52467;40.114;18.306;2022-11-04T01:16:05;15.50;;;6.75;;
42192;SDS011;52467;40.114;18.306;2022-11-04T01:18:34;14.20;;;6.90;;
42192;SDS011;52467;40.114;18.306;2022-11-04T01:21:05;13.82;;;7.55;;
42192;SDS011;52467;40.114;18.306;2022-11-04T01:23:35;17.30;;;7.28;;
42192;SDS011;52467;40.114;18.306;2022-11-04T01:26:05;20.10;;;7.50;;
42192;SDS011;52467;40.114;18.306;2022-11-04T01:28:41;15.57;;;6.97;;
42192;SDS011;52467;40.114;18.306;2022-11-04T01:31:09;22.20;;;8.02;;
42192;SDS011;52467;40.114;18.306;2022-11-04T01:33:40;15.30;;;7.55;;
42192;SDS011;52467;40.114;18.306;2022-11-04T01:36:08;15.20;;;7.60;;
42192;SDS011;52467;40.114;18.306;2022-11-04T01:38:36;19.70;;;8.63;;
42192;SDS011;52467;40.114;18.306;2022-11-04T01:41:03;14.73;;;7.97;;
42192;SDS011;52467;40.114;18.306;2022-11-04T01:49:03;15.68;;;7.55;;
42192;SDS011;52467;40.114;18.306;2022-11-04T01:51:43;16.63;;;7.35;;
42192;SDS011;52467;40.114;18.306;2022-11-04T01:54:11;14.68;;;7.35;;
42192;SDS011;52467;40.114;18.306;2022-11-04T01:56:40;17.60;;;8.23;;
42192;SDS011;52467;40.114;18.306;2022-11-04T01:59:09;15.50;;;8.13;;
42192;SDS011;52467;40.114;18.306;2022-11-04T02:01:45;18.52;;;8.80;;
42192;SDS011;52467;40.114;18.306;2022-11-04T02:04:12;18.70;;;8.83;;
42192;SDS011;52467;40.114;18.306;2022-11-04T02:06:56;19.42;;;8.55;;
42192;SDS011;52467;40.114;18.306;2022-11-04T02:09:25;16.33;;;8.95;;
42192;SDS011;52467;40.114;18.306;2022-11-04T02:11:54;16.90;;;8.45;;
42192;SDS011;52467;40.114;18.306;2022-11-04T02:14:40;16.63;;;8.77;;
42192;SDS011;52467;40.114;18.306;2022-11-04T02:25:30;20.00;;;10.17;;
42192;SDS011;52467;40.114;18.306;2022-11-04T02:33:30;20.83;;;10.13;;
42192;SDS011;52467;40.114;18.306;2022-11-04T02:36:26;21.88;;;10.30;;
42192;SDS011;52467;40.114;18.306;2022-11-04T02:39:08;19.88;;;10.05;;
42192;SDS011;52467;40.114;18.306;2022-11-04T02:41:55;19.15;;;9.98;;
42192;SDS011;52467;40.114;18.306;2022-11-04T02:47:37;15.20;;;8.32;;
42192;SDS011;52467;40.114;18.306;2022-11-04T02:50:16;19.42;;;9.63;;
42192;SDS011;52467;40.114;18.306;2022-11-04T02:52:54;16.23;;;8.27;;
42192;SDS011;52467;40.114;18.306;2022-11-04T02:55:27;22.25;;;9.05;;
42192;SDS011;52467;40.114;18.306;2022-11-04T02:58:01;18.55;;;9.05;;
42192;SDS011;52467;40.114;18.306;2022-11-04T03:00:32;20.60;;;8.80;;
42192;SDS011;52467;40.114;18.306;2022-11-04T03:03:00;16.60;;;8.48;;
42192;SDS011;52467;40.114;18.306;2022-11-04T03:05:33;23.25;;;10.70;;
42192;SDS011;52467;40.114;18.306;2022-11-04T03:08:04;24.05;;;11.43;;
42192;SDS011;52467;40.114;18.306;2022-11-04T03:10:37;26.60;;;12.05;;
42192;SDS011;52467;40.114;18.306;2022-11-04T03:13:13;23.25;;;12.02;;
42192;SDS011;52467;40.114;18.306;2022-11-04T03:16:01;27.15;;;10.98;;
42192;SDS011;52467;40.114;18.306;2022-11-04T03:21:31;26.13;;;11.87;;
42192;SDS011;52467;40.114;18.306;2022-11-04T03:24:00;26.70;;;12.13;;
42192;SDS011;52467;40.114;18.306;2022-11-04T03:26:32;28.40;;;11.65;;
42192;SDS011;52467;40.114;18.306;2022-11-04T03:34:47;19.88;;;10.63;;
42192;SDS011;52467;40.114;18.306;2022-11-04T03:37:14;21.33;;;11.47;;
42192;SDS011;52467;40.114;18.306;2022-11-04T03:39:42;23.08;;;10.90;;
42192;SDS011;52467;40.114;18.306;2022-11-04T03:42:10;21.23;;;11.27;;
42192;SDS011;52467;40.114;18.306;2022-11-04T03:44:51;24.02;;;11.25;;
42192;SDS011;52467;40.114;18.306;2022-11-04T03:47:21;21.43;;;10.97;;
42192;SDS011;52467;40.114;18.306;2022-11-04T03:49:51;21.75;;;10.80;;
42192;SDS011;52467;40.114;18.306;2022-11-04T03:52:21;22.15;;;11.38;;
42192;SDS011;52467;40.114;18.306;2022-11-04T03:54:49;23.20;;;11.00;;
42192;SDS011;52467;40.114;18.306;2022-11-04T04:02:45;24.88;;;13.00;;
42192;SDS011;52467;40.114;18.306;2022-11-04T04:05:26;28.20;;;13.85;;
42192;SDS011;52467;40.114;18.306;2022-11-04T04:13:23;29.23;;;14.43;;
42192;SDS011;52467;40.114;18.306;2022-11-04T04:16:12;27.40;;;14.77;;
42192;SDS011;52467;40.114;18.306;2022-11-04T04:18:49;26.60;;;14.10;;
42192;SDS011;52467;40.114;18.306;2022-11-04T04:21:31;28.10;;;14.73;;
42192;SDS011;52467;40.114;18.306;2022-11-04T04:24:02;27.27;;;14.95;;
42192;SDS011;52467;40.114;18.306;2022-11-04T04:26:49;25.80;;;13.98;;
42192;SDS011;52467;40.114;18.306;2022-11-04T04:29:37;24.20;;;13.43;;
42192;SDS011;52467;40.114;18.306;2022-11-04T04:32:05;23.17;;;12.95;;
42192;SDS011;52467;40.114;18.306;2022-11-04T04:34:33;23.00;;;12.82;;
42192;SDS011;52467;40.114;18.306;2022-11-04T04:37:01;20.52;;;11.70;;
42192;SDS011;52467;40.114;18.306;2022-11-04T04:39:33;20.20;;;11.03;;
42192;SDS011;52467;40.114;18.306;2022-11-04T04:42:22;19.47;;;10.30;;
42192;SDS011;52467;40.114;18.306;2022-11-04T04:45:09;18.15;;;10.25;;
42192;SDS011;52467;40.114;18.306;2022-11-04T04:47:44;20.60;;;11.80;;
42192;SDS011;52467;40.114;18.306;2022-11-04T04:50:13;18.73;;;11.30;;
42192;SDS011;52467;40.114;18.306;2022-11-04T04:52:43;18.85;;;10.50;;
42192;SDS011;52467;40.114;18.306;2022-11-04T04:55:12;21.50;;;11.35;;
42192;SDS011;52467;40.114;18.306;2022-11-04T04:57:40;18.77;;;10.17;;
42192;SDS011;52467;40.114;18.306;2022-11-04T05:00:10;19.77;;;10.80;;
42192;SDS011;52467;40.114;18.306;2022-11-04T05:02:41;19.73;;;10.27;;
42192;SDS011;52467;40.114;18.306;2022-11-04T05:05:09;16.77;;;9.32;;
42192;SDS011;52467;40.114;18.306;2022-11-04T05:07:39;15.07;;;9.57;;
42192;SDS011;52467;40.114;18.306;2022-11-04T05:10:10;18.30;;;9.02;;
42192;SDS011;52467;40.114;18.306;2022-11-04T05:12:39;14.38;;;8.70;;
42192;SDS011;52467;40.114;18.306;2022-11-04T05:15:25;17.55;;;9.50;;
42192;SDS011;52467;40.114;18.306;2022-11-04T05:17:53;18.45;;;10.40;;
42192;SDS011;52467;40.114;18.306;2022-11-04T05:20:22;24.08;;;11.98;;
42192;SDS011;52467;40.114;18.306;2022-11-04T05:22:49;20.45;;;11.30;;
42192;SDS011;52467;40.114;18.306;2022-11-04T05:25:17;18.00;;;10.60;;
42192;SDS011;52467;40.114;18.306;2022-11-04T05:27:44;20.10;;;10.63;;
42192;SDS011;52467;40.114;18.306;2022-11-04T05:30:11;18.10;;;11.00;;
42192;SDS011;52467;40.114;18.306;2022-11-04T05:32:39;20.20;;;10.35;;
42192;SDS011;52467;40.114;18.306;2022-11-04T05:35:07;19.85;;;11.45;;
42192;SDS011;52467;40.114;18.306;2022-11-04T05:37:35;19.97;;;10.70;;
42192;SDS011;52467;40.114;18.306;2022-11-04T05:40:02;19.77;;;12.00;;
42192;SDS011;52467;40.114;18.306;2022-11-04T05:42:30;21.73;;;11.63;;
42192;SDS011;52467;40.114;18.306;2022-11-04T05:44:57;19.63;;;11.17;;
42192;SDS011;52467;40.114;18.306;2022-11-04T05:47:24;19.65;;;11.43;;
42192;SDS011;52467;40.114;18.306;2022-11-04T05:49:52;25.80;;;12.20;;
42192;SDS011;52467;40.114;18.306;2022-11-04T05:52:19;21.85;;;12.00;;
42192;SDS011;52467;40.114;18.306;2022-11-04T05:54:46;22.23;;;12.60;;
42192;SDS011;52467;40.114;18.306;2022-11-04T05:57:14;22.87;;;12.87;;
42192;SDS011;52467;40.114;18.306;2022-11-04T05:59:41;23.02;;;13.60;;
42192;SDS011;52467;40.114;18.306;2022-11-04T06:02:08;21.88;;;13.73;;
42192;SDS011;52467;40.114;18.306;2022-11-04T06:04:36;21.48;;;12.82;;
42192;SDS011;52467;40.114;18.306;2022-11-04T06:07:04;19.00;;;11.82;;
42192;SDS011;52467;40.114;18.306;2022-11-04T06:09:32;21.08;;;12.75;;
42192;SDS011;52467;40.114;18.306;2022-11-04T06:12:08;22.48;;;12.60;;
42192;SDS011;52467;40.114;18.306;2022-11-04T06:14:37;25.02;;;13.70;;
42192;SDS011;52467;40.114;18.306;2022-11-04T06:17:04;27.08;;;13.18;;
42192;SDS011;52467;40.114;18.306;2022-11-04T06:19:32;26.52;;;13.40;;
42192;SDS011;52467;40.114;18.306;2022-11-04T06:21:59;20.10;;;12.55;;
42192;SDS011;52467;40.114;18.306;2022-11-04T06:24:26;25.38;;;12.55;;
42192;SDS011;52467;40.114;18.306;2022-11-04T06:26:54;27.50;;;13.85;;
42192;SDS011;52467;40.114;18.306;2022-11-04T06:29:21;24.70;;;13.20;;
42192;SDS011;52467;40.114;18.306;2022-11-04T06:31:48;23.42;;;13.32;;
42192;SDS011;52467;40.114;18.306;2022-11-04T06:34:16;21.55;;;12.90;;
42192;SDS011;52467;40.114;18.306;2022-11-04T06:36:43;22.83;;;12.93;;
42192;SDS011;52467;40.114;18.306;2022-11-04T06:39:10;23.85;;;13.45;;
42192;SDS011;52467;40.114;18.306;2022-11-04T06:41:38;24.67;;;12.63;;
42192;SDS011;52467;40.114;18.306;2022-11-04T06:44:07;26.20;;;12.68;;
42192;SDS011;52467;40.114;18.306;2022-11-04T06:46:46;23.07;;;12.83;;
42192;SDS011;52467;40.114;18.306;2022-11-04T06:49:14;27.15;;;12.18;;
42192;SDS011;52467;40.114;18.306;2022-11-04T06:51:43;24.20;;;12.02;;
42192;SDS011;52467;40.114;18.306;2022-11-04T06:54:11;24.58;;;12.30;;
42192;SDS011;52467;40.114;18.306;2022-11-04T06:56:40;24.35;;;12.30;;
42192;SDS011;52467;40.114;18.306;2022-11-04T06:59:08;19.88;;;11.82;;
42192;SDS011;52467;40.114;18.306;2022-11-04T07:01:43;24.70;;;11.80;;
42192;SDS011;52467;40.114;18.306;2022-11-04T07:04:11;18.88;;;10.98;;
42192;SDS011;52467;40.114;18.306;2022-11-04T07:06:40;17.60;;;11.90;;
42192;SDS011;52467;40.114;18.306;2022-11-04T07:09:47;24.48;;;12.73;;
42192;SDS011;52467;40.114;18.306;2022-11-04T07:12:14;22.73;;;12.38;;
42192;SDS011;52467;40.114;18.306;2022-11-04T07:14:42;22.10;;;12.80;;
42192;SDS011;52467;40.114;18.306;2022-11-04T07:17:09;20.48;;;11.98;;
42192;SDS011;52467;40.114;18.306;2022-11-04T07:19:36;26.80;;;13.30;;
42192;SDS011;52467;40.114;18.306;2022-11-04T07:22:04;24.98;;;14.10;;
42192;SDS011;52467;40.114;18.306;2022-11-04T07:24:31;26.80;;;13.23;;
42192;SDS011;52467;40.114;18.306;2022-11-04T07:26:58;23.17;;;12.77;;
42192;SDS011;52467;40.114;18.306;2022-11-04T07:29:27;27.63;;;13.80;;
42192;SDS011;52467;40.114;18.306;2022-11-04T07:31:54;23.92;;;12.57;;
42192;SDS011;52467;40.114;18.306;2022-11-04T07:34:21;24.83;;;12.70;;
42192;SDS011;52467;40.114;18.306;2022-11-04T07:36:49;21.38;;;11.23;;
42192;SDS011;52467;40.114;18.306;2022-11-04T07:39:16;23.45;;;11.68;;
42192;SDS011;52467;40.114;18.306;2022-11-04T07:41:43;24.20;;;11.25;;
42192;SDS011;52467;40.114;18.306;2022-11-04T07:44:11;17.53;;;9.80;;
42192;SDS011;52467;40.114;18.306;2022-11-04T07:46:38;16.55;;;9.23;;
42192;SDS011;52467;40.114;18.306;2022-11-04T07:49:07;20.40;;;10.10;;
42192;SDS011;52467;40.114;18.306;2022-11-04T07:51:34;21.63;;;9.25;;
42192;SDS011;52467;40.114;18.306;2022-11-04T07:54:01;17.73;;;8.98;;
42192;SDS011;52467;40.114;18.306;2022-11-04T07:56:29;14.80;;;9.27;;
42192;SDS011;52467;40.114;18.306;2022-11-04T07:58:56;15.05;;;9.20;;
42192;SDS011;52467;40.114;18.306;2022-11-04T08:01:24;20.80;;;10.18;;
42192;SDS011;52467;40.114;18.306;2022-11-04T08:03:51;18.27;;;8.97;;
42192;SDS011;52467;40.114;18.306;2022-11-04T08:06:19;13.73;;;8.75;;
42192;SDS011;52467;40.114;18.306;2022-11-04T08:08:47;17.98;;;8.55;;
42192;SDS011;52467;40.114;18.306;2022-11-04T08:11:16;18.42;;;9.38;;
42192;SDS011;52467;40.114;18.306;2022-11-04T08:13:45;16.95;;;8.27;;
42192;SDS011;52467;40.114;18.306;2022-11-04T08:16:14;19.02;;;9.40;;
42192;SDS011;52467;40.114;18.306;2022-11-04T08:18:43;17.35;;;9.93;;
42192;SDS011;52467;40.114;18.306;2022-11-04T08:21:11;15.68;;;9.43;;
42192;SDS011;52467;40.114;18.306;2022-11-04T08:23:39;15.68;;;9.43;;
42192;SDS011;52467;40.114;18.306;2022-11-04T08:26:10;16.30;;;8.98;;
42192;SDS011;52467;40.114;18.306;2022-11-04T08:28:38;16.60;;;9.48;;
42192;SDS011;52467;40.114;18.306;2022-11-04T08:31:16;16.63;;;9.40;;
42192;SDS011;52467;40.114;18.306;2022-11-04T08:33:50;17.63;;;9.82;;
42192;SDS011;52467;40.114;18.306;2022-11-04T08:36:28;15.88;;;9.52;;
42192;SDS011;52467;40.114;18.306;2022-11-04T08:38:57;18.05;;;9.50;;
42192;SDS011;52467;40.114;18.306;2022-11-04T08:41:28;19.40;;;10.13;;
42192;SDS011;52467;40.114;18.306;2022-11-04T08:43:57;19.20;;;9.60;;
42192;SDS011;52467;40.114;18.306;2022-11-04T08:46:27;17.00;;;9.18;;
42192;SDS011;52467;40.114;18.306;2022-11-04T08:48:54;15.50;;;9.07;;
42192;SDS011;52467;40.114;18.306;2022-11-04T08:51:23;17.80;;;9.55;;
42192;SDS011;52467;40.114;18.306;2022-11-04T08:53:51;17.83;;;8.90;;
42192;SDS011;52467;40.114;18.306;2022-11-04T08:56:20;16.55;;;9.20;;
42192;SDS011;52467;40.114;18.306;2022-11-04T08:58:50;18.15;;;9.00;;
42192;SDS011;52467;40.114;18.306;2022-11-04T09:01:18;15.48;;;8.82;;
42192;SDS011;52467;40.114;18.306;2022-11-04T09:03:46;14.70;;;8.38;;
42192;SDS011;52467;40.114;18.306;2022-11-04T09:06:22;14.95;;;7.30;;
42192;SDS011;52467;40.114;18.306;2022-11-04T09:08:51;11.30;;;6.47;;
42192;SDS011;52467;40.114;18.306;2022-11-04T09:11:22;10.75;;;6.13;;
42192;SDS011;52467;40.114;18.306;2022-11-04T09:13:50;9.30;;;5.55;;
42192;SDS011;52467;40.114;18.306;2022-11-04T09:16:17;11.25;;;6.45;;
42192;SDS011;52467;40.114;18.306;2022-11-04T09:18:44;11.18;;;5.60;;
42192;SDS011;52467;40.114;18.306;2022-11-04T09:21:12;12.05;;;5.78;;
42192;SDS011;52467;40.114;18.306;2022-11-04T09:23:39;9.05;;;5.72;;
42192;SDS011;52467;40.114;18.306;2022-11-04T09:26:08;10.30;;;5.53;;
42192;SDS011;52467;40.114;18.306;2022-11-04T09:28:37;13.30;;;5.43;;
42192;SDS011;52467;40.114;18.306;2022-11-04T09:31:09;14.90;;;4.97;;
42192;SDS011;52467;40.114;18.306;2022-11-04T09:33:41;8.07;;;4.30;;
42192;SDS011;52467;40.114;18.306;2022-11-04T09:36:09;7.53;;;4.47;;
42192;SDS011;52467;40.114;18.306;2022-11-04T09:38:37;8.70;;;4.53;;
42192;SDS011;52467;40.114;18.306;2022-11-04T09:41:10;9.73;;;4.40;;
42192;SDS011;52467;40.114;18.306;2022-11-04T09:46:52;8.43;;;4.13;;
42192;SDS011;52467;40.114;18.306;2022-11-04T09:49:23;7.90;;;4.43;;
42192;SDS011;52467;40.114;18.306;2022-11-04T09:51:52;7.57;;;4.70;;
42192;SDS011;52467;40.114;18.306;2022-11-04T09:54:25;8.57;;;4.63;;
42192;SDS011;52467;40.114;18.306;2022-11-04T09:56:58;10.60;;;4.80;;
42192;SDS011;52467;40.114;18.306;2022-11-04T09:59:26;10.43;;;4.60;;
42192;SDS011;52467;40.114;18.306;2022-11-04T10:02:00;10.82;;;4.13;;
42192;SDS011;52467;40.114;18.306;2022-11-04T10:07:19;7.88;;;4.15;;
42192;SDS011;52467;40.114;18.306;2022-11-04T10:23:50;8.85;;;4.63;;
42192;SDS011;52467;40.114;18.306;2022-11-04T10:26:58;12.05;;;4.70;;
42192;SDS011;52467;40.114;18.306;2022-11-04T10:29:27;6.45;;;3.08;;
42192;SDS011;52467;40.114;18.306;2022-11-04T10:34:50;8.98;;;3.60;;
42192;SDS011;52467;40.114;18.306;2022-11-04T10:37:30;9.57;;;4.07;;
42192;SDS011;52467;40.114;18.306;2022-11-04T10:40:00;7.03;;;3.70;;
42192;SDS011;52467;40.114;18.306;2022-11-04T10:42:41;7.75;;;3.38;;
42192;SDS011;52467;40.114;18.306;2022-11-04T10:45:11;7.68;;;3.47;;
42192;SDS011;52467;40.114;18.306;2022-11-04T10:47:47;7.00;;;4.40;;
42192;SDS011;52467;40.114;18.306;2022-11-04T10:50:21;8.68;;;4.35;;
42192;SDS011;52467;40.114;18.306;2022-11-04T10:55:43;9.47;;;3.73;;
42192;SDS011;52467;40.114;18.306;2022-11-04T10:58:36;10.10;;;3.72;;
42192;SDS011;52467;40.114;18.306;2022-11-04T11:01:28;10.82;;;3.83;;
42192;SDS011;52467;40.114;18.306;2022-11-04T11:03:57;7.97;;;4.22;;
42192;SDS011;52467;40.114;18.306;2022-11-04T11:06:26;8.48;;;3.90;;
42192;SDS011;52467;40.114;18.306;2022-11-04T11:08:56;7.30;;;4.07;;
42192;SDS011;52467;40.114;18.306;2022-11-04T11:14:16;9.55;;;4.03;;
42192;SDS011;52467;40.114;18.306;2022-11-04T11:16:53;7.68;;;3.72;;
42192;SDS011;52467;40.114;18.306;2022-11-04T11:19:22;8.50;;;4.32;;
42192;SDS011;52467;40.114;18.306;2022-11-04T11:21:57;6.50;;;4.22;;
42192;SDS011;52467;40.114;18.306;2022-11-04T11:24:25;8.48;;;3.88;;
42192;SDS011;52467;40.114;18.306;2022-11-04T11:26:54;8.25;;;4.38;;
42192;SDS011;52467;40.114;18.306;2022-11-04T11:32:06;12.85;;;5.70;;
42192;SDS011;52467;40.114;18.306;2022-11-04T11:34:54;8.95;;;4.65;;
42192;SDS011;52467;40.114;18.306;2022-11-04T11:37:27;7.38;;;4.50;;
42192;SDS011;52467;40.114;18.306;2022-11-04T11:39:56;7.88;;;4.25;;
42192;SDS011;52467;40.114;18.306;2022-11-04T11:42:24;9.93;;;4.28;;
42192;SDS011;52467;40.114;18.306;2022-11-04T11:44:53;8.48;;;4.22;;
42192;SDS011;52467;40.114;18.306;2022-11-04T11:52:40;9.70;;;4.40;;
42192;SDS011;52467;40.114;18.306;2022-11-04T12:03:38;10.52;;;4.88;;
42192;SDS011;52467;40.114;18.306;2022-11-04T12:12:32;8.30;;;3.90;;
42192;SDS011;52467;40.114;18.306;2022-11-04T12:15:17;7.17;;;3.80;;
42192;SDS011;52467;40.114;18.306;2022-11-04T12:23:16;8.67;;;4.17;;
42192;SDS011;52467;40.114;18.306;2022-11-04T12:28:31;10.07;;;4.37;;
42192;SDS011;52467;40.114;18.306;2022-11-04T12:31:14;12.67;;;4.67;;
42192;SDS011;52467;40.114;18.306;2022-11-04T12:36:33;10.73;;;4.45;;
42192;SDS011;52467;40.114;18.306;2022-11-04T12:39:23;10.68;;;4.22;;
42192;SDS011;52467;40.114;18.306;2022-11-04T12:42:00;12.67;;;5.20;;
42192;SDS011;52467;40.114;18.306;2022-11-04T12:47:45;9.23;;;4.78;;
42192;SDS011;52467;40.114;18.306;2022-11-04T12:58:33;11.05;;;5.38;;
42192;SDS011;52467;40.114;18.306;2022-11-04T13:01:18;13.63;;;5.30;;
42192;SDS011;52467;40.114;18.306;2022-11-04T13:04:10;10.13;;;5.50;;
42192;SDS011;52467;40.114;18.306;2022-11-04T13:06:48;10.38;;;4.93;;
42192;SDS011;52467;40.114;18.306;2022-11-04T13:09:34;12.00;;;6.00;;
42192;SDS011;52467;40.114;18.306;2022-11-04T13:17:19;10.88;;;4.70;;
42192;SDS011;52467;40.114;18.306;2022-11-04T13:19:51;11.55;;;4.90;;
42192;SDS011;52467;40.114;18.306;2022-11-04T13:22:31;10.32;;;4.60;;
42192;SDS011;52467;40.114;18.306;2022-11-04T13:25:03;9.95;;;5.32;;
42192;SDS011;52467;40.114;18.306;2022-11-04T13:27:36;12.02;;;5.63;;
42192;SDS011;52467;40.114;18.306;2022-11-04T13:30:16;14.87;;;5.83;;
42192;SDS011;52467;40.114;18.306;2022-11-04T13:38:27;11.35;;;6.13;;
42192;SDS011;52467;40.114;18.306;2022-11-04T13:41:01;17.73;;;7.20;;
42192;SDS011;52467;40.114;18.306;2022-11-04T13:44:00;12.83;;;7.17;;
42192;SDS011;52467;40.114;18.306;2022-11-04T13:46:30;16.33;;;7.30;;
42192;SDS011;52467;40.114;18.306;2022-11-04T13:49:01;16.13;;;7.83;;
42192;SDS011;52467;40.114;18.306;2022-11-04T13:51:44;12.48;;;7.13;;
42192;SDS011;52467;40.114;18.306;2022-11-04T13:54:27;16.80;;;7.75;;
42192;SDS011;52467;40.114;18.306;2022-11-04T13:57:02;17.83;;;8.30;;
42192;SDS011;52467;40.114;18.306;2022-11-04T13:59:34;16.90;;;8.05;;
42192;SDS011;52467;40.114;18.306;2022-11-04T14:18:52;17.13;;;8.75;;
42192;SDS011;52467;40.114;18.306;2022-11-04T14:21:26;20.17;;;10.50;;
42192;SDS011;52467;40.114;18.306;2022-11-04T14:23:56;19.92;;;9.52;;
42192;SDS011;52467;40.114;18.306;2022-11-04T14:26:26;21.03;;;10.30;;
42192;SDS011;52467;40.114;18.306;2022-11-04T14:29:16;19.55;;;9.75;;
42192;SDS011;52467;40.114;18.306;2022-11-04T14:31:47;18.55;;;8.63;;
42192;SDS011;52467;40.114;18.306;2022-11-04T14:37:00;18.02;;;9.23;;
42192;SDS011;52467;40.114;18.306;2022-11-04T14:39:54;16.13;;;9.03;;
42192;SDS011;52467;40.114;18.306;2022-11-04T14:45:20;20.40;;;9.70;;
42192;SDS011;52467;40.114;18.306;2022-11-04T14:47:51;19.83;;;9.38;;
42192;SDS011;52467;40.114;18.306;2022-11-04T14:50:28;18.75;;;8.80;;
42192;SDS011;52467;40.114;18.306;2022-11-04T14:53:00;19.17;;;8.30;;
42192;SDS011;52467;40.114;18.306;2022-11-04T14:55:31;17.35;;;8.95;;
42192;SDS011;52467;40.114;18.306;2022-11-04T14:58:12;16.77;;;8.57;;
42192;SDS011;52467;40.114;18.306;2022-11-04T15:00:54;16.67;;;8.43;;
42192;SDS011;52467;40.114;18.306;2022-11-04T15:03:29;20.67;;;9.48;;
42192;SDS011;52467;40.114;18.306;2022-11-04T15:06:25;16.48;;;9.05;;
42192;SDS011;52467;40.114;18.306;2022-11-04T15:09:00;16.30;;;8.60;;
42192;SDS011;52467;40.114;18.306;2022-11-04T15:11:28;17.75;;;8.13;;
42192;SDS011;52467;40.114;18.306;2022-11-04T15:14:16;17.13;;;8.45;;
42192;SDS011;52467;40.114;18.306;2022-11-04T15:17:09;16.30;;;9.00;;
42192;SDS011;52467;40.114;18.306;2022-11-04T15:19:40;14.20;;;8.80;;
42192;SDS011;52467;40.114;18.306;2022-11-04T15:22:10;20.83;;;9.50;;
42192;SDS011;52467;40.114;18.306;2022-11-04T15:24:39;20.60;;;10.23;;
42192;SDS011;52467;40.114;18.306;2022-11-04T15:27:09;22.08;;;10.55;;
42192;SDS011;52467;40.114;18.306;2022-11-04T15:29:52;22.13;;;10.48;;
42192;SDS011;52467;40.114;18.306;2022-11-04T15:32:21;20.40;;;9.80;;
42192;SDS011;52467;40.114;18.306;2022-11-04T15:34:48;19.08;;;9.32;;
42192;SDS011;52467;40.114;18.306;2022-11-04T15:37:16;18.00;;;9.70;;
42192;SDS011;52467;40.114;18.306;2022-11-04T15:39:44;22.30;;;9.70;;
42192;SDS011;52467;40.114;18.306;2022-11-04T15:42:17;19.40;;;9.50;;
42192;SDS011;52467;40.114;18.306;2022-11-04T15:45:25;19.02;;;9.73;;
42192;SDS011;52467;40.114;18.306;2022-11-04T15:53:32;24.38;;;10.23;;
42192;SDS011;52467;40.114;18.306;2022-11-04T15:56:00;22.50;;;9.55;;
42192;SDS011;52467;40.114;18.306;2022-11-04T15:58:28;19.00;;;10.02;;
42192;SDS011;52467;40.114;18.306;2022-11-04T16:00:57;25.60;;;10.82;;
42192;SDS011;52467;40.114;18.306;2022-11-04T16:03:24;20.85;;;9.20;;
42192;SDS011;52467;40.114;18.306;2022-11-04T16:06:02;25.50;;;9.93;;
42192;SDS011;52467;40.114;18.306;2022-11-04T16:08:31;19.30;;;9.50;;
42192;SDS011;52467;40.114;18.306;2022-11-04T16:14:13;18.45;;;9.85;;
42192;SDS011;52467;40.114;18.306;2022-11-04T16:16:50;23.53;;;10.37;;
42192;SDS011;52467;40.114;18.306;2022-11-04T16:19:19;18.05;;;9.57;;
42192;SDS011;52467;40.114;18.306;2022-11-04T16:22:07;18.25;;;9.68;;
42192;SDS011;52467;40.114;18.306;2022-11-04T16:24:36;21.65;;;9.90;;
42192;SDS011;52467;40.114;18.306;2022-11-04T16:27:08;21.00;;;10.13;;
42192;SDS011;52467;40.114;18.306;2022-11-04T16:29:36;23.88;;;10.65;;
42192;SDS011;52467;40.114;18.306;2022-11-04T16:32:22;26.42;;;10.70;;
42192;SDS011;52467;40.114;18.306;2022-11-04T16:35:04;22.35;;;10.35;;
42192;SDS011;52467;40.114;18.306;2022-11-04T16:37:39;21.85;;;10.80;;
42192;SDS011;52467;40.114;18.306;2022-11-04T16:40:07;28.70;;;10.93;;
42192;SDS011;52467;40.114;18.306;2022-11-04T16:42:34;21.40;;;9.50;;
42192;SDS011;52467;40.114;18.306;2022-11-04T16:45:02;23.83;;;9.60;;
42192;SDS011;52467;40.114;18.306;2022-11-04T16:47:30;23.02;;;9.52;;
42192;SDS011;52467;40.114;18.306;2022-11-04T16:50:01;26.55;;;10.20;;
42192;SDS011;52467;40.114;18.306;2022-11-04T16:52:32;26.77;;;10.53;;
42192;SDS011;52467;40.114;18.306;2022-11-04T16:54:59;18.45;;;9.70;;
42192;SDS011;52467;40.114;18.306;2022-11-04T16:57:28;20.70;;;9.20;;
42192;SDS011;52467;40.114;18.306;2022-11-04T16:59:55;21.25;;;9.77;;
42192;SDS011;52467;40.114;18.306;2022-11-04T17:02:26;18.67;;;9.60;;
42192;SDS011;52467;40.114;18.306;2022-11-04T17:05:00;21.92;;;9.48;;
42192;SDS011;52467;40.114;18.306;2022-11-04T17:07:27;24.85;;;10.00;;
42192;SDS011;52467;40.114;18.306;2022-11-04T17:10:25;18.73;;;8.63;;
42192;SDS011;52467;40.114;18.306;2022-11-04T17:12:54;23.30;;;9.67;;
42192;SDS011;52467;40.114;18.306;2022-11-04T17:15:22;24.90;;;9.02;;
42192;SDS011;52467;40.114;18.306;2022-11-04T17:17:49;20.30;;;8.85;;
42192;SDS011;52467;40.114;18.306;2022-11-04T17:20:17;25.63;;;9.38;;
42192;SDS011;52467;40.114;18.306;2022-11-04T17:22:45;22.73;;;9.17;;
42192;SDS011;52467;40.114;18.306;2022-11-04T17:25:17;24.43;;;9.77;;
42192;SDS011;52467;40.114;18.306;2022-11-04T17:27:46;24.57;;;9.50;;
42192;SDS011;52467;40.114;18.306;2022-11-04T17:30:14;23.52;;;9.60;;